Toronto Islands, Canada
Current Conditions -  °F | °C
As of 3:00 PM on Wednesday 26 Nov 2014 (Local Time) from CYTZ Reporting Station
Overcast Overcast  
Wind Chill: 26°   Ceiling: 4000
Heat Index: 36°   Visibility: 9mi
Dew Point: 27°   Wind: 15mph
Humidity: 70%   Direction: 70°ENE
Pressure: 30.14"   Gusts: NA
Location:  43.62°N, 79.38°W
Report Text: CYTZ 262000Z AUTO 07013KT 9SM OVC040 02/M03 A3014 RMK SLP209
Loading
Personal Weather Stations






























Interactive Weather Map New forecast layout! Learn more

10-Day Weather Forecast

Advertisements
Track Severe Weather on mobile